Time;durP1;ratioP1;P1;durP2;ratioP2;P2;SDS_P1;SDS_P2;PMS_P1;PMS_P2;Temp;Humidity;BMP_temperature;BMP_pressure;BME280_temperature;BME280_humidity;BME280_pressure;Samples;Min_cycle;Max_cycle;Signal;HPM_P1;HPM_P2
2022/04/27 00:00:19;;;;;;;;;;;;;;;4.14;100.00;102380.34;2611785;31;19958;-49
2022/04/27 00:02:49;;;;;;;;;;;;;;;4.18;100.00;102381.09;2611382;36;19969;-51
2022/04/27 00:05:17;;;;;;;;;;;;;;;4.28;100.00;102386.97;2613240;36;20595;-52
2022/04/27 00:07:48;;;;;;;;;;;;;;;4.30;100.00;102390.41;2612957;36;19962;-49
2022/04/27 00:10:18;;;;;;;;;;;;;;;4.23;100.00;102386.28;2612647;36;19946;-53
2022/04/27 00:12:47;;;;;;;;;;;;;;;4.20;100.00;102395.25;2611605;36;19947;-53
2022/04/27 00:15:15;;;;;;;;;;;;;;;4.06;100.00;102381.56;2612296;36;20042;-51
2022/04/27 00:17:43;;;;;;;;;;;;;;;3.88;100.00;102383.09;2612375;36;19974;-49
2022/04/27 00:20:14;;;;;;;;;;;;;;;3.77;100.00;102386.13;2610871;31;20503;-51
2022/04/27 00:22:42;;;;;;;;;;;;;;;3.73;100.00;102380.06;2605421;36;20328;-50
2022/04/27 00:25:11;;;;;;;;;;;;;;;3.73;100.00;102381.84;2612143;36;20436;-49
2022/04/27 00:27:38;;;;;;;;;;;;;;;3.80;100.00;102375.41;2612978;36;20093;-52
2022/04/27 00:30:07;;;;;;;;;;;;;;;3.91;100.00;102373.19;2611948;36;20049;-54
2022/04/27 00:32:35;;;;;;;;;;;;;;;3.94;100.00;102377.56;2611546;36;20534;-48
2022/04/27 00:35:05;;;;;;;;;;;;;;;3.99;100.00;102381.78;2612798;36;20435;-50
2022/04/27 00:37:36;;;;;;;;;;;;;;;4.00;100.00;102385.31;2611472;36;19947;-49
2022/04/27 00:40:04;;;;;;;;;;;;;;;4.03;100.00;102387.84;2613281;36;19951;-52
2022/04/27 00:42:32;;;;;;;;;;;;;;;4.12;100.00;102387.53;2612974;36;19976;-50
2022/04/27 00:45:02;;;;;;;;;;;;;;;4.08;100.00;102391.25;2611005;36;19969;-49
2022/04/27 00:47:31;;;;;;;;;;;;;;;4.05;100.00;102383.38;2611928;36;19950;-50
2022/04/27 00:49:59;;;;;;;;;;;;;;;4.09;100.00;102387.63;2612165;36;19950;-50
2022/04/27 00:52:27;;;;;;;;;;;;;;;3.98;100.00;102385.38;2611663;31;19946;-49
2022/04/27 00:54:58;;;;;;;;;;;;;;;3.97;100.00;102388.09;2611581;36;20126;-48
2022/04/27 00:57:27;;;;;;;;;;;;;;;4.04;100.00;102394.94;2613663;31;19951;-50
2022/04/27 00:59:55;;;;;;;;;;;;;;;3.98;100.00;102395.16;2612974;36;20315;-52
2022/04/27 01:02:23;;;;;;;;;;;;;;;4.02;100.00;102392.31;2611296;36;20045;-53
2022/04/27 01:04:52;;;;;;;;;;;;;;;4.05;100.00;102396.69;2612843;36;20441;-49
2022/04/27 01:07:20;;;;;;;;;;;;;;;4.02;100.00;102391.47;2612169;36;20037;-49
2022/04/27 01:09:48;;;;;;;;;;;;;;;4.00;100.00;102394.16;2612153;36;19951;-51
2022/04/27 01:12:18;;;;;;;;;;;;;;;3.93;100.00;102391.78;2611997;36;19958;-51
2022/04/27 01:14:47;;;;;;;;;;;;;;;3.78;100.00;102398.53;2611518;36;20049;-48
2022/04/27 01:17:16;;;;;;;;;;;;;;;3.83;100.00;102402.78;2613090;36;20343;-50
2022/04/27 01:19:44;;;;;;;;;;;;;;;3.91;100.00;102393.66;2611861;36;20073;-49
2022/04/27 01:22:14;;;;;;;;;;;;;;;3.89;100.00;102403.47;2610587;36;19983;-51
2022/04/27 01:24:44;;;;;;;;;;;;;;;3.66;100.00;102399.84;2610379;36;19958;-54
2022/04/27 01:27:12;;;;;;;;;;;;;;;3.60;100.00;102400.06;2610534;31;19951;-52
2022/04/27 01:29:40;;;;;;;;;;;;;;;3.49;100.00;102406.63;2611492;36;20045;-50
2022/04/27 01:32:10;;;;;;;;;;;;;;;3.43;100.00;102406.81;2610939;36;20613;-49
2022/04/27 01:34:38;;;;;;;;;;;;;;;3.41;100.00;102411.31;2611149;36;19950;-49
2022/04/27 01:39:50;;;;;;;;;;;;;;;3.67;100.00;102417.56;2612608;36;20347;-53
2022/04/27 01:42:18;;;;;;;;;;;;;;;3.76;100.00;102406.56;2611433;36;19950;-49
2022/04/27 01:44:46;;;;;;;;;;;;;;;3.74;100.00;102408.44;2610888;36;19950;-52
2022/04/27 01:47:14;;;;;;;;;;;;;;;3.69;100.00;102418.34;2610014;36;19955;-51
2022/04/27 01:49:42;;;;;;;;;;;;;;;3.65;100.00;102411.41;2610237;36;19996;-53
2022/04/27 01:54:53;;;;;;;;;;;;;;;3.74;100.00;102421.75;2611503;31;19947;-50
2022/04/27 01:57:21;;;;;;;;;;;;;;;3.79;100.00;102416.25;2611438;36;20504;-49
2022/04/27 01:59:49;;;;;;;;;;;;;;;3.78;100.00;102426.03;2611023;36;20065;-54
2022/04/27 02:02:17;;;;;;;;;;;;;;;3.80;100.00;102428.66;2610188;36;20058;-50
2022/04/27 02:04:46;;;;;;;;;;;;;;;3.92;100.00;102424.69;2610954;36;19958;-49
2022/04/27 02:07:14;;;;;;;;;;;;;;;3.94;100.00;102425.50;2611623;36;19951;-50
2022/04/27 02:09:42;;;;;;;;;;;;;;;3.92;100.00;102427.34;2611332;36;20001;-53
2022/04/27 02:12:13;;;;;;;;;;;;;;;3.88;100.00;102425.72;2609303;36;19950;-54
2022/04/27 02:14:41;;;;;;;;;;;;;;;3.83;100.00;102429.41;2609069;36;19950;-51
2022/04/27 02:17:09;;;;;;;;;;;;;;;3.87;100.00;102435.47;2610789;36;19947;-49
2022/04/27 02:19:37;;;;;;;;;;;;;;;3.92;100.00;102430.88;2610081;36;19954;-52
2022/04/27 02:22:06;;;;;;;;;;;;;;;3.94;100.00;102436.16;2611431;36;19951;-52
2022/04/27 02:24:34;;;;;;;;;;;;;;;3.95;100.00;102443.22;2612609;31;20603;-48
2022/04/27 02:27:02;;;;;;;;;;;;;;;3.88;100.00;102437.22;2611523;31;20416;-49
2022/04/27 02:29:32;;;;;;;;;;;;;;;3.97;100.00;102444.03;2611437;36;20538;-50
2022/04/27 02:32:00;;;;;;;;;;;;;;;4.05;100.00;102444.66;2612678;36;20078;-49
2022/04/27 02:34:28;;;;;;;;;;;;;;;4.07;100.00;102450.78;2611551;31;19950;-50
2022/04/27 02:36:58;;;;;;;;;;;;;;;4.00;100.00;102446.59;2612217;36;19951;-51
2022/04/27 02:39:26;;;;;;;;;;;;;;;3.99;100.00;102452.81;2611337;31;20798;-50
2022/04/27 02:41:54;;;;;;;;;;;;;;;3.99;100.00;102450.16;2611700;36;20029;-50
2022/04/27 02:44:22;;;;;;;;;;;;;;;3.95;100.00;102448.56;2611656;36;19969;-49
2022/04/27 02:46:52;;;;;;;;;;;;;;;3.82;100.00;102453.44;2611886;31;19950;-49
2022/04/27 02:52:01;;;;;;;;;;;;;;;4.00;100.00;102459.91;2613471;36;19947;-50
2022/04/27 02:54:29;;;;;;;;;;;;;;;3.99;100.00;102452.81;2613123;36;20066;-51
2022/04/27 02:56:57;;;;;;;;;;;;;;;3.91;100.00;102452.25;2613456;36;20084;-50
2022/04/27 02:59:25;;;;;;;;;;;;;;;3.81;100.00;102452.56;2613691;36;19954;-50
2022/04/27 03:01:56;;;;;;;;;;;;;;;3.82;100.00;102448.97;2611633;36;19957;-49
2022/04/27 03:04:24;;;;;;;;;;;;;;;3.94;100.00;102452.13;2612481;36;19958;-51
2022/04/27 03:06:52;;;;;;;;;;;;;;;3.86;100.00;102453.28;2613691;36;20121;-50
2022/04/27 03:09:20;;;;;;;;;;;;;;;3.88;100.00;102463.00;2613399;36;20121;-49
2022/04/27 03:11:48;;;;;;;;;;;;;;;3.78;100.00;102457.13;2613007;36;20037;-53
2022/04/27 03:14:16;;;;;;;;;;;;;;;3.61;100.00;102460.38;2612286;31;20527;-49
2022/04/27 03:16:44;;;;;;;;;;;;;;;3.59;100.00;102462.19;2612574;36;19946;-50
2022/04/27 03:19:15;;;;;;;;;;;;;;;3.65;100.00;102462.88;2612390;36;19957;-53
2022/04/27 03:21:43;;;;;;;;;;;;;;;3.50;100.00;102466.94;2612559;36;20085;-51
2022/04/27 03:24:11;;;;;;;;;;;;;;;3.44;100.00;102463.59;2612274;31;19953;-50
2022/04/27 03:26:39;;;;;;;;;;;;;;;3.59;100.00;102467.53;2612882;31;19950;-48
2022/04/27 03:29:07;;;;;;;;;;;;;;;3.52;100.00;102461.56;2613188;36;20037;-49
2022/04/27 03:31:35;;;;;;;;;;;;;;;3.42;100.00;102460.97;2612738;31;20507;-47
2022/04/27 03:34:03;;;;;;;;;;;;;;;3.36;100.00;102461.19;2611576;36;20050;-51
2022/04/27 03:36:34;;;;;;;;;;;;;;;3.41;100.00;102466.34;2612610;36;20086;-50
2022/04/27 03:39:02;;;;;;;;;;;;;;;3.37;100.00;102468.22;2612700;36;19951;-49
2022/04/27 03:41:30;;;;;;;;;;;;;;;3.33;100.00;102466.59;2613560;36;19946;-50
2022/04/27 03:43:58;;;;;;;;;;;;;;;3.32;100.00;102464.84;2613257;36;19968;-50
2022/04/27 03:46:26;;;;;;;;;;;;;;;3.38;100.00;102463.78;2611971;31;20427;-50
2022/04/27 03:48:54;;;;;;;;;;;;;;;3.19;100.00;102472.34;2612993;36;20066;-49
2022/04/27 03:51:22;;;;;;;;;;;;;;;3.26;100.00;102476.56;2612264;31;19962;-50
2022/04/27 03:53:53;;;;;;;;;;;;;;;3.01;100.00;102471.16;2612849;36;20050;-49
2022/04/27 03:56:21;;;;;;;;;;;;;;;3.02;100.00;102478.22;2613235;36;19997;-50
2022/04/27 03:58:49;;;;;;;;;;;;;;;2.85;100.00;102481.38;2613309;36;20542;-51
2022/04/27 04:01:17;;;;;;;;;;;;;;;2.93;100.00;102478.47;2612789;31;20026;-49
2022/04/27 04:03:45;;;;;;;;;;;;;;;2.85;100.00;102476.06;2612809;36;20041;-48
2022/04/27 04:06:13;;;;;;;;;;;;;;;2.87;100.00;102473.34;2612008;36;19955;-53
2022/04/27 04:08:41;;;;;;;;;;;;;;;2.90;100.00;102479.47;2613477;36;19965;-49
2022/04/27 04:11:12;;;;;;;;;;;;;;;2.79;100.00;102474.44;2612916;36;19957;-51
2022/04/27 04:13:40;;;;;;;;;;;;;;;2.60;100.00;102481.22;2612860;36;20073;-51
2022/04/27 04:16:08;;;;;;;;;;;;;;;2.55;100.00;102484.03;2599102;36;19973;-53
2022/04/27 04:18:36;;;;;;;;;;;;;;;2.54;100.00;102490.25;2612880;36;19950;-51
2022/04/27 04:21:04;;;;;;;;;;;;;;;2.66;100.00;102490.81;2612379;36;20454;-51
2022/04/27 04:23:32;;;;;;;;;;;;;;;2.66;100.00;102491.69;2612494;36;20030;-50
2022/04/27 04:28:43;;;;;;;;;;;;;;;2.70;100.00;102493.34;2613185;31;19946;-48
2022/04/27 04:31:11;;;;;;;;;;;;;;;2.82;100.00;102496.56;2613822;36;20520;-50
2022/04/27 04:33:39;;;;;;;;;;;;;;;2.68;100.00;102497.84;2612715;36;20058;-51
2022/04/27 04:36:09;;;;;;;;;;;;;;;2.74;100.00;102494.09;2611972;36;19946;-50
2022/04/27 04:38:37;;;;;;;;;;;;;;;2.55;100.00;102491.13;2612584;36;19954;-52
2022/04/27 04:41:05;;;;;;;;;;;;;;;2.57;100.00;102505.25;2612869;36;20534;-48
2022/04/27 04:43:33;;;;;;;;;;;;;;;2.43;100.00;102506.50;2613420;36;19954;-51
2022/04/27 04:46:04;;;;;;;;;;;;;;;2.39;100.00;102515.47;2612101;36;19950;-49
2022/04/27 04:48:32;;;;;;;;;;;;;;;2.51;100.00;102514.25;2612696;36;19946;-52
2022/04/27 04:51:00;;;;;;;;;;;;;;;2.69;100.00;102510.19;2612535;36;19954;-49
2022/04/27 04:53:28;;;;;;;;;;;;;;;2.89;100.00;102514.09;2613201;36;19954;-52
2022/04/27 04:55:56;;;;;;;;;;;;;;;2.97;100.00;102517.38;2611603;36;19989;-50
2022/04/27 04:58:24;;;;;;;;;;;;;;;3.10;100.00;102518.72;2613034;36;20057;-50
2022/04/27 05:00:55;;;;;;;;;;;;;;;3.14;100.00;102509.75;2614121;36;20089;-52
2022/04/27 05:03:26;;;;;;;;;;;;;;;3.15;100.00;102515.94;2612548;36;20030;-50
2022/04/27 05:05:54;;;;;;;;;;;;;;;3.28;100.00;102517.31;2613305;31;20065;-49
2022/04/27 05:08:22;;;;;;;;;;;;;;;3.34;100.00;102521.56;2612304;36;20084;-51
2022/04/27 05:10:50;;;;;;;;;;;;;;;3.22;100.00;102529.94;2612420;36;19997;-50
2022/04/27 05:13:18;;;;;;;;;;;;;;;3.28;100.00;102522.63;2613429;31;20323;-48
2022/04/27 05:15:46;;;;;;;;;;;;;;;3.27;100.00;102525.34;2612987;31;19988;-50
2022/04/27 05:18:14;;;;;;;;;;;;;;;3.35;100.00;102527.75;2610862;31;20045;-48
2022/04/27 05:20:44;;;;;;;;;;;;;;;3.39;100.00;102529.41;2613052;36;19958;-50
2022/04/27 05:23:13;;;;;;;;;;;;;;;3.53;100.00;102536.94;2612448;36;20502;-50
2022/04/27 05:25:41;;;;;;;;;;;;;;;3.33;100.00;102526.00;2612660;36;19969;-51
2022/04/27 05:28:09;;;;;;;;;;;;;;;3.45;100.00;102537.19;2612187;36;20419;-49
2022/04/27 05:33:18;;;;;;;;;;;;;;;3.53;100.00;102552.91;2609862;36;20404;-50
2022/04/27 05:35:49;;;;;;;;;;;;;;;3.74;100.00;102546.91;2612127;36;19947;-50
2022/04/27 05:38:17;;;;;;;;;;;;;;;3.60;100.00;102555.34;2612051;36;19950;-49
2022/04/27 05:40:46;;;;;;;;;;;;;;;3.61;100.00;102558.88;2612961;36;20022;-53
2022/04/27 05:43:14;;;;;;;;;;;;;;;3.86;100.00;102566.94;2612265;36;20486;-48
2022/04/27 05:45:42;;;;;;;;;;;;;;;3.89;100.00;102571.28;2612960;31;19953;-55
2022/04/27 05:48:11;;;;;;;;;;;;;;;3.86;100.00;102567.81;2611467;36;19951;-53
2022/04/27 05:50:40;;;;;;;;;;;;;;;4.03;100.00;102575.25;2612751;31;19947;-50
2022/04/27 05:53:11;;;;;;;;;;;;;;;4.23;100.00;102575.50;2612964;36;19955;-49
2022/04/27 05:55:43;;;;;;;;;;;;;;;4.39;100.00;102582.03;2612761;36;20276;-48
2022/04/27 05:58:11;;;;;;;;;;;;;;;4.57;100.00;102584.03;2610401;36;19951;-50
2022/04/27 06:00:39;;;;;;;;;;;;;;;4.97;100.00;102580.84;2610974;36;20109;-51
2022/04/27 06:03:07;;;;;;;;;;;;;;;5.08;100.00;102581.34;2610789;31;20033;-49
2022/04/27 06:05:35;;;;;;;;;;;;;;;5.36;100.00;102578.47;2613364;36;20323;-51
2022/04/27 06:08:03;;;;;;;;;;;;;;;5.57;100.00;102578.56;2613460;31;20437;-51
2022/04/27 06:10:34;;;;;;;;;;;;;;;5.81;100.00;102575.81;2612451;36;20024;-51
2022/04/27 06:13:02;;;;;;;;;;;;;;;6.09;100.00;102575.56;2611782;36;20034;-53
2022/04/27 06:15:30;;;;;;;;;;;;;;;6.28;100.00;102571.16;2612928;36;20436;-51
2022/04/27 06:17:58;;;;;;;;;;;;;;;6.18;100.00;102577.84;2611129;36;19985;-54
2022/04/27 06:20:26;;;;;;;;;;;;;;;6.43;100.00;102584.81;2612147;36;21644;-50
2022/04/27 06:22:54;;;;;;;;;;;;;;;6.52;100.00;102583.53;2612023;36;19946;-49
2022/04/27 06:25:22;;;;;;;;;;;;;;;6.83;100.00;102583.03;2612496;36;19969;-53
2022/04/27 06:27:53;;;;;;;;;;;;;;;6.83;100.00;102583.03;2612482;36;19947;-51
2022/04/27 06:30:21;;;;;;;;;;;;;;;7.11;100.00;102587.13;2610947;31;20061;-53
2022/04/27 06:32:49;;;;;;;;;;;;;;;7.26;100.00;102585.56;2612810;36;19981;-51
2022/04/27 06:35:17;;;;;;;;;;;;;;;7.35;100.00;102588.66;2613096;36;20009;-51
2022/04/27 06:37:45;;;;;;;;;;;;;;;7.36;100.00;102586.84;2611485;36;19969;-49
2022/04/27 06:40:14;;;;;;;;;;;;;;;7.41;100.00;102589.34;2611891;36;20529;-54
2022/04/27 06:42:44;;;;;;;;;;;;;;;7.85;100.00;102594.34;2610510;36;19973;-50
2022/04/27 06:45:15;;;;;;;;;;;;;;;8.10;100.00;102598.47;2611640;36;19947;-57
2022/04/27 06:47:43;;;;;;;;;;;;;;;8.61;100.00;102594.09;2611995;36;20029;-51
2022/04/27 06:50:12;;;;;;;;;;;;;;;8.89;100.00;102601.56;2612296;36;20057;-52
2022/04/27 06:52:42;;;;;;;;;;;;;;;9.04;100.00;102597.19;2612564;36;19950;-50
2022/04/27 06:55:10;;;;;;;;;;;;;;;8.92;100.00;102597.81;2612335;31;19998;-51
2022/04/27 06:57:39;;;;;;;;;;;;;;;8.89;100.00;102606.06;2609974;36;20445;-54
2022/04/27 07:00:08;;;;;;;;;;;;;;;9.00;100.00;102609.03;2611311;31;19953;-52
2022/04/27 07:02:39;;;;;;;;;;;;;;;9.15;100.00;102610.03;2612506;36;20367;-51
2022/04/27 07:05:12;;;;;;;;;;;;;;;9.20;100.00;102604.38;2612567;36;19972;-49
2022/04/27 07:07:40;;;;;;;;;;;;;;;9.50;100.00;102600.97;2613079;36;19968;-50
2022/04/27 07:10:08;;;;;;;;;;;;;;;9.69;100.00;102606.16;2610950;31;19973;-52
2022/04/27 07:12:36;;;;;;;;;;;;;;;9.52;100.00;102605.28;2613125;31;19972;-52
2022/04/27 07:15:05;;;;;;;;;;;;;;;9.67;100.00;102606.25;2611770;31;20511;-57
2022/04/27 07:17:33;;;;;;;;;;;;;;;10.02;100.00;102606.03;2611910;36;20838;-52
2022/04/27 07:20:04;;;;;;;;;;;;;;;10.52;100.00;102618.34;2612553;36;19946;-55
2022/04/27 07:22:35;;;;;;;;;;;;;;;10.86;100.00;102616.31;2610669;36;20041;-53
2022/04/27 07:25:03;;;;;;;;;;;;;;;10.97;100.00;102620.16;2614059;36;20029;-57
2022/04/27 07:27:31;;;;;;;;;;;;;;;10.85;100.00;102624.47;2611798;36;20073;-54
2022/04/27 07:29:59;;;;;;;;;;;;;;;11.00;100.00;102622.66;2613352;31;20387;-58
2022/04/27 07:32:27;;;;;;;;;;;;;;;10.97;100.00;102621.03;2610269;36;19951;-53
2022/04/27 07:34:56;;;;;;;;;;;;;;;10.92;100.00;102631.19;2612042;36;19973;-55
2022/04/27 07:37:26;;;;;;;;;;;;;;;10.49;100.00;102632.00;2611346;36;19950;-53
2022/04/27 07:39:54;;;;;;;;;;;;;;;10.44;100.00;102626.03;2613307;36;19973;-56
2022/04/27 07:42:22;;;;;;;;;;;;;;;11.24;100.00;102624.78;2612817;36;19946;-55
2022/04/27 07:44:50;;;;;;;;;;;;;;;11.57;100.00;102622.63;2613370;31;19946;-57
2022/04/27 07:47:18;;;;;;;;;;;;;;;11.00;100.00;102630.75;2611048;36;19973;-57
2022/04/27 07:49:47;;;;;;;;;;;;;;;10.82;100.00;102638.13;2612840;36;20081;-56
2022/04/27 07:52:15;;;;;;;;;;;;;;;11.38;100.00;102632.84;2613781;36;19954;-53
2022/04/27 07:54:46;;;;;;;;;;;;;;;11.30;100.00;102635.16;2613341;36;19980;-53
2022/04/27 07:57:14;;;;;;;;;;;;;;;11.24;100.00;102635.56;2612200;36;19962;-59
2022/04/27 07:59:45;;;;;;;;;;;;;;;11.16;100.00;102636.03;2614373;36;19951;-56
2022/04/27 08:02:13;;;;;;;;;;;;;;;11.44;100.00;102645.06;2613450;31;20514;-56
2022/04/27 08:04:41;;;;;;;;;;;;;;;11.09;100.00;102640.94;2613530;36;20372;-56
2022/04/27 08:07:09;;;;;;;;;;;;;;;10.93;100.00;102640.16;2613122;36;20432;-53
2022/04/27 08:09:37;;;;;;;;;;;;;;;11.39;100.00;102648.06;2612783;31;20038;-54
2022/04/27 08:12:08;;;;;;;;;;;;;;;11.48;100.00;102655.53;2612458;36;20034;-57
2022/04/27 08:14:37;;;;;;;;;;;;;;;11.40;100.00;102655.19;2612006;36;20041;-55
2022/04/27 08:17:06;;;;;;;;;;;;;;;11.78;100.00;102649.16;2611685;31;19950;-52
2022/04/27 08:19:34;;;;;;;;;;;;;;;11.61;100.00;102652.09;2613106;36;20316;-56
2022/04/27 08:22:01;;;;;;;;;;;;;;;11.80;100.00;102659.84;2612048;36;20073;-55
2022/04/27 08:24:29;;;;;;;;;;;;;;;12.09;100.00;102653.44;2612671;36;19951;-54
2022/04/27 08:27:00;;;;;;;;;;;;;;;12.08;100.00;102664.31;2613835;36;20030;-54
2022/04/27 08:29:30;;;;;;;;;;;;;;;12.20;100.00;102658.09;2613918;36;19982;-53
2022/04/27 08:31:58;;;;;;;;;;;;;;;12.41;100.00;102660.31;2612433;36;20082;-53
2022/04/27 08:34:28;;;;;;;;;;;;;;;12.34;100.00;102661.75;2612379;36;20375;-52
2022/04/27 08:36:56;;;;;;;;;;;;;;;12.51;100.00;102669.53;2613086;36;20335;-53
2022/04/27 08:39:24;;;;;;;;;;;;;;;12.61;100.00;102672.47;2613320;36;20006;-55
2022/04/27 08:41:52;;;;;;;;;;;;;;;12.74;100.00;102669.81;2612090;36;19951;-55
2022/04/27 08:44:20;;;;;;;;;;;;;;;13.10;100.00;102673.59;2612633;36;20049;-51
2022/04/27 08:46:51;;;;;;;;;;;;;;;13.03;94.56;102670.50;2611672;36;20042;-52
2022/04/27 08:49:19;;;;;;;;;;;;;;;12.65;100.00;102678.53;2612289;36;20086;-50
2022/04/27 08:51:48;;;;;;;;;;;;;;;12.18;100.00;102670.00;2612910;36;20072;-52
2022/04/27 08:54:18;;;;;;;;;;;;;;;12.52;99.20;102673.97;2613099;36;19950;-54
2022/04/27 08:56:46;;;;;;;;;;;;;;;12.51;100.00;102674.94;2610997;31;19951;-54
2022/04/27 08:59:14;;;;;;;;;;;;;;;13.05;100.00;102673.94;2612483;36;20930;-53
2022/04/27 09:01:42;;;;;;;;;;;;;;;12.90;100.00;102681.28;2610365;36;20082;-53
2022/04/27 09:04:18;;;;;;;;;;;;;;;13.18;99.79;102687.47;2611087;36;20485;-57
2022/04/27 09:06:49;;;;;;;;;;;;;;;12.93;97.12;102686.47;2614664;31;20461;-56
2022/04/27 09:09:32;;;;;;;;;;;;;;;13.15;96.73;102690.38;2597220;36;19946;-53
2022/04/27 09:12:02;;;;;;;;;;;;;;;13.79;88.55;102684.06;2606555;36;19978;-56
2022/04/27 09:14:38;;;;;;;;;;;;;;;13.74;88.70;102692.50;2613151;36;20434;-55
2022/04/27 09:22:29;;;;;;;;;;;;;;;14.18;72.50;102684.78;2612330;36;19973;-56
2022/04/27 09:24:59;;;;;;;;;;;;;;;13.45;81.23;102692.75;2613641;36;20034;-55
2022/04/27 09:27:27;;;;;;;;;;;;;;;13.29;83.48;102698.41;2612496;31;21185;-56
2022/04/27 09:29:57;;;;;;;;;;;;;;;13.53;88.03;102694.06;2612690;31;19954;-52
2022/04/27 09:32:25;;;;;;;;;;;;;;;13.80;83.87;102697.47;2612423;36;20017;-52
2022/04/27 09:35:03;;;;;;;;;;;;;;;13.54;86.08;102699.34;2609907;36;19973;-50
2022/04/27 09:37:33;;;;;;;;;;;;;;;13.95;79.87;102697.31;2610913;36;20633;-53
2022/04/27 09:40:06;;;;;;;;;;;;;;;14.12;79.63;102694.22;2611019;31;19946;-54
2022/04/27 09:42:34;;;;;;;;;;;;;;;13.79;82.32;102694.88;2612697;36;19947;-51
2022/04/27 09:45:18;;;;;;;;;;;;;;;14.02;76.17;102695.91;2612587;36;20059;-55
2022/04/27 09:47:46;;;;;;;;;;;;;;;14.08;77.83;102700.84;2611652;36;19946;-56
2022/04/27 09:50:17;;;;;;;;;;;;;;;14.07;76.85;102698.25;2612593;36;20076;-51
2022/04/27 09:52:46;;;;;;;;;;;;;;;14.04;81.49;102693.94;2611605;36;19980;-55
2022/04/27 09:55:14;;;;;;;;;;;;;;;12.97;86.04;102700.66;2612908;31;19950;-54
2022/04/27 09:57:43;;;;;;;;;;;;;;;13.74;88.14;102702.47;2610770;36;21204;-54
2022/04/27 10:00:12;;;;;;;;;;;;;;;14.30;76.24;102689.28;2611543;36;19958;-49
2022/04/27 10:02:43;;;;;;;;;;;;;;;14.73;71.19;102695.16;2612548;32;19954;-52
2022/04/27 10:05:11;;;;;;;;;;;;;;;14.83;75.45;102690.75;2610610;36;19950;-53
2022/04/27 10:07:44;;;;;;;;;;;;;;;14.14;81.59;102694.13;2609841;36;19981;-51
2022/04/27 10:10:12;;;;;;;;;;;;;;;14.83;68.94;102686.19;2611445;36;19979;-54
2022/04/27 10:12:41;;;;;;;;;;;;;;;14.26;67.24;102698.59;2611988;36;20004;-56
2022/04/27 10:15:10;;;;;;;;;;;;;;;14.22;62.65;102691.69;2612202;36;20049;-53
2022/04/27 10:17:39;;;;;;;;;;;;;;;14.88;65.54;102686.69;2612504;36;20581;-50
2022/04/27 10:20:28;;;;;;;;;;;;;;;15.07;63.89;102687.94;2611333;36;20459;-58
2022/04/27 10:23:13;;;;;;;;;;;;;;;14.79;65.36;102684.69;2613500;36;19958;-55
2022/04/27 10:25:44;;;;;;;;;;;;;;;14.75;63.16;102685.03;2612476;36;20073;-55
2022/04/27 10:28:18;;;;;;;;;;;;;;;15.25;59.52;102685.63;2612035;36;19989;-58
2022/04/27 10:30:46;;;;;;;;;;;;;;;15.20;59.77;102685.13;2611600;36;19962;-54
2022/04/27 10:33:34;;;;;;;;;;;;;;;15.34;61.92;102684.03;2612335;36;20463;-55
2022/04/27 10:36:21;;;;;;;;;;;;;;;15.05;62.61;102682.66;2612492;36;19954;-54
2022/04/27 10:39:04;;;;;;;;;;;;;;;15.45;62.18;102689.47;2612458;36;20062;-54
2022/04/27 10:41:35;;;;;;;;;;;;;;;15.09;63.46;102693.25;2613741;36;19950;-55
2022/04/27 10:44:03;;;;;;;;;;;;;;;15.34;62.21;102687.63;2613787;36;20041;-56
2022/04/27 10:46:38;;;;;;;;;;;;;;;15.86;58.94;102684.41;2612591;36;20058;-54
2022/04/27 10:49:22;;;;;;;;;;;;;;;15.88;57.20;102677.84;2611261;36;19954;-53
2022/04/27 10:52:00;;;;;;;;;;;;;;;15.64;57.26;102686.13;2613496;36;19993;-56
2022/04/27 10:54:29;;;;;;;;;;;;;;;15.66;60.08;102683.28;2612894;36;20449;-56
2022/04/27 10:57:20;;;;;;;;;;;;;;;15.87;57.85;102686.13;2611362;36;20435;-55
2022/04/27 10:59:49;;;;;;;;;;;;;;;15.70;59.23;102685.63;2612763;36;20058;-52
2022/04/27 11:02:32;;;;;;;;;;;;;;;15.70;60.70;102691.03;2611603;36;19947;-54
2022/04/27 11:05:00;;;;;;;;;;;;;;;15.72;58.71;102683.66;2610961;36;19974;-53
2022/04/27 11:07:41;;;;;;;;;;;;;;;15.82;59.09;102691.06;2610684;36;20054;-50
2022/04/27 11:10:14;;;;;;;;;;;;;;;15.46;60.60;102693.03;2611946;36;19953;-56
2022/04/27 11:12:46;;;;;;;;;;;;;;;15.70;67.83;102693.75;2609970;31;19958;-56
2022/04/27 11:15:16;;;;;;;;;;;;;;;15.79;73.27;102691.34;2613234;36;19957;-57
2022/04/27 11:17:44;;;;;;;;;;;;;;;15.29;80.09;102688.97;2612057;36;20085;-51
2022/04/27 11:20:26;;;;;;;;;;;;;;;15.03;79.29;102694.59;2610578;36;19954;-55
2022/04/27 11:22:54;;;;;;;;;;;;;;;15.39;76.80;102685.38;2612407;36;20486;-55
2022/04/27 11:25:27;;;;;;;;;;;;;;;14.76;84.29;102689.50;2597345;31;20097;-56
2022/04/27 11:27:57;;;;;;;;;;;;;;;14.80;84.84;102686.41;2604964;36;20038;-55
2022/04/27 11:30:26;;;;;;;;;;;;;;;14.86;82.22;102685.09;2611230;36;19953;-53
2022/04/27 11:32:55;;;;;;;;;;;;;;;14.69;85.78;102681.84;2611810;36;19962;-56
2022/04/27 11:35:25;;;;;;;;;;;;;;;14.62;87.17;102679.69;2611149;36;19957;-56
2022/04/27 11:37:54;;;;;;;;;;;;;;;14.87;86.01;102686.81;2607042;36;19958;-55
2022/04/27 11:40:25;;;;;;;;;;;;;;;14.96;82.20;102688.81;2612804;36;21299;-56
2022/04/27 11:42:54;;;;;;;;;;;;;;;15.22;83.08;102680.44;2613296;36;19961;-56
2022/04/27 11:45:26;;;;;;;;;;;;;;;15.46;78.43;102683.06;2612954;36;20543;-54
2022/04/27 11:47:58;;;;;;;;;;;;;;;15.06;81.23;102687.09;2611986;31;20343;-54
2022/04/27 11:50:27;;;;;;;;;;;;;;;15.21;78.01;102685.00;2611163;36;19958;-55
2022/04/27 11:53:00;;;;;;;;;;;;;;;14.93;81.21;102690.88;2610611;31;20440;-51
2022/04/27 11:55:28;;;;;;;;;;;;;;;14.97;75.09;102687.81;2612760;36;19969;-53
2022/04/27 11:57:56;;;;;;;;;;;;;;;15.18;76.79;102684.38;2613435;36;20472;-52
2022/04/27 12:00:28;;;;;;;;;;;;;;;15.12;76.70;102684.88;2612968;36;19965;-54
2022/04/27 12:03:03;;;;;;;;;;;;;;;15.10;72.24;102685.00;2613415;36;19964;-54
2022/04/27 12:05:32;;;;;;;;;;;;;;;14.06;82.44;102685.69;2613917;36;19947;-55
2022/04/27 12:08:01;;;;;;;;;;;;;;;14.76;80.17;102684.06;2612934;36;19953;-54
2022/04/27 12:10:30;;;;;;;;;;;;;;;15.32;79.94;102686.84;2612774;31;20004;-56
2022/04/27 12:13:00;;;;;;;;;;;;;;;15.04;78.50;102682.78;2610305;36;20097;-53
2022/04/27 12:15:31;;;;;;;;;;;;;;;15.42;73.11;102685.13;2612002;31;19968;-49
2022/04/27 12:18:01;;;;;;;;;;;;;;;15.68;70.40;102684.00;2613749;36;19951;-49
2022/04/27 12:20:40;;;;;;;;;;;;;;;15.86;68.81;102678.97;2612466;36;19969;-49
2022/04/27 12:23:09;;;;;;;;;;;;;;;16.10;63.63;102679.63;2609705;36;19951;-46
2022/04/27 12:25:38;;;;;;;;;;;;;;;16.19;62.82;102682.59;2612775;36;20442;-50
2022/04/27 12:28:07;;;;;;;;;;;;;;;16.40;63.57;102685.34;2605879;36;20085;-48
2022/04/27 12:30:44;;;;;;;;;;;;;;;16.72;62.13;102677.16;2612277;36;19946;-56
2022/04/27 12:33:13;;;;;;;;;;;;;;;16.09;60.48;102677.06;2605127;36;19946;-56
2022/04/27 12:38:24;;;;;;;;;;;;;;;15.35;63.11;102678.47;2612741;36;20679;-50
2022/04/27 12:40:52;;;;;;;;;;;;;;;15.83;64.71;102671.09;2612126;36;19961;-56
2022/04/27 12:43:22;;;;;;;;;;;;;;;16.53;60.30;102682.44;2613897;31;20876;-53
2022/04/27 12:46:06;;;;;;;;;;;;;;;16.08;60.81;102672.63;2612117;36;20419;-50
2022/04/27 12:48:38;;;;;;;;;;;;;;;15.28;60.00;102679.94;2612295;36;19950;-52
2022/04/27 12:51:07;;;;;;;;;;;;;;;14.96;66.30;102669.81;2610675;36;20066;-55
2022/04/27 12:53:36;;;;;;;;;;;;;;;15.92;61.19;102682.03;2611009;36;20184;-51
2022/04/27 12:56:11;;;;;;;;;;;;;;;15.63;61.11;102678.97;2610796;31;19943;-50
2022/04/27 12:58:41;;;;;;;;;;;;;;;16.24;57.71;102673.06;2611456;36;19947;-52
2022/04/27 13:01:09;;;;;;;;;;;;;;;15.71;64.40;102675.66;2611952;36;19968;-52
2022/04/27 13:03:39;;;;;;;;;;;;;;;16.52;56.40;102669.84;2612862;36;20078;-54
2022/04/27 13:06:07;;;;;;;;;;;;;;;14.84;64.75;102673.47;2612692;31;20065;-50
2022/04/27 13:08:35;;;;;;;;;;;;;;;15.19;61.27;102686.13;2613588;36;20550;-53